sensor_id;sensor_type;location;lat;lon;timestamp;P1;durP1;ratioP1;P2;durP2;ratioP2
18933;SDS011;9599;53.706;10.384;2023-05-07T00:01:34;15.93;;;11.57;;
18933;SDS011;9599;53.706;10.384;2023-05-07T00:04:02;15.47;;;11.33;;
18933;SDS011;9599;53.706;10.384;2023-05-07T00:06:31;15.60;;;10.87;;
18933;SDS011;9599;53.706;10.384;2023-05-07T00:09:01;15.23;;;11.60;;
18933;SDS011;9599;53.706;10.384;2023-05-07T00:11:30;16.30;;;11.30;;
18933;SDS011;9599;53.706;10.384;2023-05-07T00:14:00;16.30;;;11.43;;
18933;SDS011;9599;53.706;10.384;2023-05-07T00:16:28;17.50;;;11.47;;
18933;SDS011;9599;53.706;10.384;2023-05-07T00:18:56;18.20;;;12.57;;
18933;SDS011;9599;53.706;10.384;2023-05-07T00:21:24;16.93;;;11.17;;
18933;SDS011;9599;53.706;10.384;2023-05-07T00:23:53;16.77;;;11.73;;
18933;SDS011;9599;53.706;10.384;2023-05-07T00:26:22;18.30;;;11.83;;
18933;SDS011;9599;53.706;10.384;2023-05-07T00:28:50;18.30;;;12.03;;
18933;SDS011;9599;53.706;10.384;2023-05-07T00:31:18;16.13;;;11.00;;
18933;SDS011;9599;53.706;10.384;2023-05-07T00:33:47;16.93;;;11.10;;
18933;SDS011;9599;53.706;10.384;2023-05-07T00:36:15;17.73;;;12.37;;
18933;SDS011;9599;53.706;10.384;2023-05-07T00:38:43;16.37;;;11.40;;
18933;SDS011;9599;53.706;10.384;2023-05-07T00:41:10;17.57;;;12.07;;
18933;SDS011;9599;53.706;10.384;2023-05-07T00:43:40;15.63;;;11.97;;
18933;SDS011;9599;53.706;10.384;2023-05-07T00:46:08;15.50;;;11.33;;
18933;SDS011;9599;53.706;10.384;2023-05-07T00:48:37;17.60;;;11.90;;
18933;SDS011;9599;53.706;10.384;2023-05-07T00:51:05;16.80;;;11.57;;
18933;SDS011;9599;53.706;10.384;2023-05-07T00:53:33;17.47;;;12.57;;
18933;SDS011;9599;53.706;10.384;2023-05-07T00:56:02;17.37;;;11.73;;
18933;SDS011;9599;53.706;10.384;2023-05-07T00:58:30;17.63;;;11.70;;
18933;SDS011;9599;53.706;10.384;2023-05-07T01:01:00;18.73;;;12.40;;
18933;SDS011;9599;53.706;10.384;2023-05-07T01:03:29;17.03;;;11.47;;
18933;SDS011;9599;53.706;10.384;2023-05-07T01:05:58;18.20;;;12.23;;
18933;SDS011;9599;53.706;10.384;2023-05-07T01:08:28;17.10;;;11.77;;
18933;SDS011;9599;53.706;10.384;2023-05-07T01:10:57;18.13;;;13.00;;
18933;SDS011;9599;53.706;10.384;2023-05-07T01:13:27;17.97;;;12.53;;
18933;SDS011;9599;53.706;10.384;2023-05-07T01:15:55;18.27;;;12.83;;
18933;SDS011;9599;53.706;10.384;2023-05-07T01:18:24;19.27;;;12.90;;
18933;SDS011;9599;53.706;10.384;2023-05-07T01:20:53;18.67;;;12.70;;
18933;SDS011;9599;53.706;10.384;2023-05-07T01:23:24;18.43;;;12.97;;
18933;SDS011;9599;53.706;10.384;2023-05-07T01:25:52;20.93;;;13.70;;
18933;SDS011;9599;53.706;10.384;2023-05-07T01:28:23;21.70;;;13.37;;
18933;SDS011;9599;53.706;10.384;2023-05-07T01:30:55;22.20;;;13.77;;
18933;SDS011;9599;53.706;10.384;2023-05-07T01:33:29;21.13;;;13.77;;
18933;SDS011;9599;53.706;10.384;2023-05-07T01:35:59;20.50;;;14.20;;
18933;SDS011;9599;53.706;10.384;2023-05-07T01:38:31;19.10;;;13.70;;
18933;SDS011;9599;53.706;10.384;2023-05-07T01:40:59;21.03;;;14.77;;
18933;SDS011;9599;53.706;10.384;2023-05-07T01:43:28;21.73;;;14.50;;
18933;SDS011;9599;53.706;10.384;2023-05-07T01:45:56;20.57;;;13.73;;
18933;SDS011;9599;53.706;10.384;2023-05-07T01:48:26;22.73;;;14.73;;
18933;SDS011;9599;53.706;10.384;2023-05-07T01:50:55;19.63;;;14.10;;
18933;SDS011;9599;53.706;10.384;2023-05-07T01:53:23;19.90;;;13.13;;
18933;SDS011;9599;53.706;10.384;2023-05-07T01:55:56;19.80;;;13.50;;
18933;SDS011;9599;53.706;10.384;2023-05-07T01:58:25;20.63;;;13.90;;
18933;SDS011;9599;53.706;10.384;2023-05-07T02:00:53;19.47;;;12.97;;
18933;SDS011;9599;53.706;10.384;2023-05-07T02:03:21;21.33;;;13.70;;
18933;SDS011;9599;53.706;10.384;2023-05-07T02:05:58;20.57;;;14.23;;
18933;SDS011;9599;53.706;10.384;2023-05-07T02:08:31;21.77;;;14.03;;
18933;SDS011;9599;53.706;10.384;2023-05-07T02:11:00;23.20;;;14.17;;
18933;SDS011;9599;53.706;10.384;2023-05-07T02:13:29;20.27;;;13.87;;
18933;SDS011;9599;53.706;10.384;2023-05-07T02:15:59;18.53;;;13.27;;
18933;SDS011;9599;53.706;10.384;2023-05-07T02:18:28;19.70;;;13.93;;
18933;SDS011;9599;53.706;10.384;2023-05-07T02:20:56;22.67;;;14.60;;
18933;SDS011;9599;53.706;10.384;2023-05-07T02:23:24;17.97;;;13.33;;
18933;SDS011;9599;53.706;10.384;2023-05-07T02:25:53;17.83;;;12.73;;
18933;SDS011;9599;53.706;10.384;2023-05-07T02:28:22;16.37;;;11.60;;
18933;SDS011;9599;53.706;10.384;2023-05-07T02:30:57;17.17;;;11.83;;
18933;SDS011;9599;53.706;10.384;2023-05-07T02:33:28;16.63;;;12.07;;
18933;SDS011;9599;53.706;10.384;2023-05-07T02:36:04;13.97;;;10.73;;
18933;SDS011;9599;53.706;10.384;2023-05-07T02:38:35;14.53;;;10.93;;
18933;SDS011;9599;53.706;10.384;2023-05-07T02:41:04;13.27;;;10.30;;
18933;SDS011;9599;53.706;10.384;2023-05-07T02:43:33;15.93;;;10.77;;
18933;SDS011;9599;53.706;10.384;2023-05-07T02:46:02;14.47;;;10.30;;
18933;SDS011;9599;53.706;10.384;2023-05-07T02:48:32;15.80;;;10.43;;
18933;SDS011;9599;53.706;10.384;2023-05-07T02:51:01;12.37;;;9.77;;
18933;SDS011;9599;53.706;10.384;2023-05-07T02:53:32;13.53;;;9.73;;
18933;SDS011;9599;53.706;10.384;2023-05-07T02:56:01;12.13;;;9.87;;
18933;SDS011;9599;53.706;10.384;2023-05-07T02:58:29;13.07;;;9.80;;
18933;SDS011;9599;53.706;10.384;2023-05-07T03:01:00;12.13;;;9.03;;
18933;SDS011;9599;53.706;10.384;2023-05-07T03:03:36;11.67;;;9.10;;
18933;SDS011;9599;53.706;10.384;2023-05-07T03:06:05;12.17;;;9.23;;
18933;SDS011;9599;53.706;10.384;2023-05-07T03:08:33;11.63;;;9.07;;
18933;SDS011;9599;53.706;10.384;2023-05-07T03:11:02;13.63;;;9.40;;
18933;SDS011;9599;53.706;10.384;2023-05-07T03:13:31;11.73;;;9.00;;
18933;SDS011;9599;53.706;10.384;2023-05-07T03:16:00;12.07;;;8.30;;
18933;SDS011;9599;53.706;10.384;2023-05-07T03:18:28;10.77;;;8.43;;
18933;SDS011;9599;53.706;10.384;2023-05-07T03:20:56;11.23;;;8.73;;
18933;SDS011;9599;53.706;10.384;2023-05-07T03:23:24;10.30;;;7.90;;
18933;SDS011;9599;53.706;10.384;2023-05-07T03:25:52;11.53;;;9.20;;
18933;SDS011;9599;53.706;10.384;2023-05-07T03:28:20;11.13;;;8.70;;
18933;SDS011;9599;53.706;10.384;2023-05-07T03:30:54;12.93;;;9.80;;
18933;SDS011;9599;53.706;10.384;2023-05-07T03:33:23;13.77;;;9.33;;
18933;SDS011;9599;53.706;10.384;2023-05-07T03:35:52;12.73;;;9.73;;
18933;SDS011;9599;53.706;10.384;2023-05-07T03:38:23;12.80;;;9.67;;
18933;SDS011;9599;53.706;10.384;2023-05-07T03:40:51;13.80;;;10.20;;
18933;SDS011;9599;53.706;10.384;2023-05-07T03:43:19;13.50;;;9.90;;
18933;SDS011;9599;53.706;10.384;2023-05-07T03:45:55;14.57;;;10.33;;
18933;SDS011;9599;53.706;10.384;2023-05-07T03:48:27;13.67;;;10.27;;
18933;SDS011;9599;53.706;10.384;2023-05-07T03:50:57;16.33;;;10.37;;
18933;SDS011;9599;53.706;10.384;2023-05-07T03:53:30;13.17;;;10.17;;
18933;SDS011;9599;53.706;10.384;2023-05-07T03:55:59;13.47;;;9.60;;
18933;SDS011;9599;53.706;10.384;2023-05-07T03:58:30;13.10;;;9.57;;
18933;SDS011;9599;53.706;10.384;2023-05-07T04:01:03;13.00;;;9.40;;
18933;SDS011;9599;53.706;10.384;2023-05-07T04:03:33;14.77;;;9.90;;
18933;SDS011;9599;53.706;10.384;2023-05-07T04:06:01;13.80;;;9.70;;
18933;SDS011;9599;53.706;10.384;2023-05-07T04:08:31;14.97;;;9.70;;
18933;SDS011;9599;53.706;10.384;2023-05-07T04:10:59;13.17;;;9.20;;
18933;SDS011;9599;53.706;10.384;2023-05-07T04:13:30;10.80;;;8.53;;
18933;SDS011;9599;53.706;10.384;2023-05-07T04:16:01;13.60;;;9.07;;
18933;SDS011;9599;53.706;10.384;2023-05-07T04:18:33;11.47;;;8.77;;
18933;SDS011;9599;53.706;10.384;2023-05-07T04:21:01;10.67;;;8.50;;
18933;SDS011;9599;53.706;10.384;2023-05-07T04:23:30;11.47;;;8.93;;
18933;SDS011;9599;53.706;10.384;2023-05-07T04:26:02;12.67;;;9.03;;
18933;SDS011;9599;53.706;10.384;2023-05-07T04:28:35;13.83;;;9.03;;
18933;SDS011;9599;53.706;10.384;2023-05-07T04:31:03;13.30;;;8.73;;
18933;SDS011;9599;53.706;10.384;2023-05-07T04:33:34;12.80;;;9.03;;
18933;SDS011;9599;53.706;10.384;2023-05-07T04:36:04;13.40;;;9.57;;
18933;SDS011;9599;53.706;10.384;2023-05-07T04:38:38;12.57;;;9.57;;
18933;SDS011;9599;53.706;10.384;2023-05-07T04:41:08;12.30;;;9.00;;
18933;SDS011;9599;53.706;10.384;2023-05-07T04:43:39;12.80;;;9.07;;
18933;SDS011;9599;53.706;10.384;2023-05-07T04:46:11;12.63;;;9.17;;
18933;SDS011;9599;53.706;10.384;2023-05-07T04:48:42;13.77;;;9.73;;
18933;SDS011;9599;53.706;10.384;2023-05-07T04:51:10;11.67;;;8.50;;
18933;SDS011;9599;53.706;10.384;2023-05-07T04:53:39;12.13;;;9.00;;
18933;SDS011;9599;53.706;10.384;2023-05-07T04:56:07;13.43;;;8.90;;
18933;SDS011;9599;53.706;10.384;2023-05-07T04:58:40;12.07;;;8.87;;
18933;SDS011;9599;53.706;10.384;2023-05-07T05:01:09;12.33;;;8.67;;
18933;SDS011;9599;53.706;10.384;2023-05-07T05:03:38;12.33;;;9.63;;
18933;SDS011;9599;53.706;10.384;2023-05-07T05:06:08;11.57;;;8.53;;
18933;SDS011;9599;53.706;10.384;2023-05-07T05:08:37;12.80;;;8.53;;
18933;SDS011;9599;53.706;10.384;2023-05-07T05:11:05;11.17;;;8.17;;
18933;SDS011;9599;53.706;10.384;2023-05-07T05:13:35;10.97;;;8.37;;
18933;SDS011;9599;53.706;10.384;2023-05-07T05:16:11;11.80;;;8.67;;
18933;SDS011;9599;53.706;10.384;2023-05-07T05:18:39;11.17;;;8.40;;
18933;SDS011;9599;53.706;10.384;2023-05-07T05:21:11;13.47;;;8.60;;
18933;SDS011;9599;53.706;10.384;2023-05-07T05:23:41;12.87;;;8.93;;
18933;SDS011;9599;53.706;10.384;2023-05-07T05:26:10;11.37;;;8.70;;
18933;SDS011;9599;53.706;10.384;2023-05-07T05:28:38;11.90;;;8.50;;
18933;SDS011;9599;53.706;10.384;2023-05-07T05:31:06;11.97;;;8.73;;
18933;SDS011;9599;53.706;10.384;2023-05-07T05:33:35;11.40;;;8.60;;
18933;SDS011;9599;53.706;10.384;2023-05-07T05:36:04;11.37;;;8.17;;
18933;SDS011;9599;53.706;10.384;2023-05-07T05:38:37;12.20;;;8.70;;
18933;SDS011;9599;53.706;10.384;2023-05-07T05:41:06;10.17;;;7.93;;
18933;SDS011;9599;53.706;10.384;2023-05-07T05:43:34;11.20;;;8.10;;
18933;SDS011;9599;53.706;10.384;2023-05-07T05:46:03;10.47;;;8.00;;
18933;SDS011;9599;53.706;10.384;2023-05-07T05:48:31;11.63;;;8.47;;
18933;SDS011;9599;53.706;10.384;2023-05-07T05:51:01;11.53;;;8.40;;
18933;SDS011;9599;53.706;10.384;2023-05-07T05:53:29;9.53;;;7.70;;
18933;SDS011;9599;53.706;10.384;2023-05-07T05:55:58;11.03;;;7.80;;
18933;SDS011;9599;53.706;10.384;2023-05-07T05:58:28;10.93;;;7.83;;
18933;SDS011;9599;53.706;10.384;2023-05-07T06:01:00;11.57;;;8.03;;
18933;SDS011;9599;53.706;10.384;2023-05-07T06:03:29;9.97;;;7.70;;
18933;SDS011;9599;53.706;10.384;2023-05-07T06:06:01;11.73;;;7.40;;
18933;SDS011;9599;53.706;10.384;2023-05-07T06:08:29;9.20;;;7.30;;
18933;SDS011;9599;53.706;10.384;2023-05-07T06:10:59;9.90;;;7.10;;
18933;SDS011;9599;53.706;10.384;2023-05-07T06:13:32;10.23;;;7.50;;
18933;SDS011;9599;53.706;10.384;2023-05-07T06:16:00;9.93;;;8.00;;
18933;SDS011;9599;53.706;10.384;2023-05-07T06:18:28;9.73;;;7.63;;
18933;SDS011;9599;53.706;10.384;2023-05-07T06:20:57;10.33;;;7.60;;
18933;SDS011;9599;53.706;10.384;2023-05-07T06:23:29;10.30;;;7.30;;
18933;SDS011;9599;53.706;10.384;2023-05-07T06:25:59;11.03;;;7.33;;
18933;SDS011;9599;53.706;10.384;2023-05-07T06:28:33;10.53;;;7.63;;
18933;SDS011;9599;53.706;10.384;2023-05-07T06:31:11;9.40;;;6.93;;
18933;SDS011;9599;53.706;10.384;2023-05-07T06:33:42;11.20;;;7.90;;
18933;SDS011;9599;53.706;10.384;2023-05-07T06:36:11;10.07;;;7.70;;
18933;SDS011;9599;53.706;10.384;2023-05-07T06:38:39;9.40;;;7.63;;
18933;SDS011;9599;53.706;10.384;2023-05-07T06:41:09;12.23;;;7.70;;
18933;SDS011;9599;53.706;10.384;2023-05-07T06:43:38;9.67;;;8.10;;
18933;SDS011;9599;53.706;10.384;2023-05-07T06:46:23;9.43;;;7.50;;
18933;SDS011;9599;53.706;10.384;2023-05-07T06:48:51;11.03;;;8.00;;
18933;SDS011;9599;53.706;10.384;2023-05-07T06:51:19;10.23;;;6.80;;
18933;SDS011;9599;53.706;10.384;2023-05-07T06:53:48;8.73;;;6.70;;
18933;SDS011;9599;53.706;10.384;2023-05-07T06:56:17;10.53;;;7.40;;
18933;SDS011;9599;53.706;10.384;2023-05-07T06:58:45;9.10;;;7.27;;
18933;SDS011;9599;53.706;10.384;2023-05-07T07:01:13;9.37;;;7.27;;
18933;SDS011;9599;53.706;10.384;2023-05-07T07:03:43;9.13;;;7.07;;
18933;SDS011;9599;53.706;10.384;2023-05-07T07:06:11;9.90;;;7.20;;
18933;SDS011;9599;53.706;10.384;2023-05-07T07:08:39;10.13;;;7.50;;
18933;SDS011;9599;53.706;10.384;2023-05-07T07:11:10;10.27;;;7.00;;
18933;SDS011;9599;53.706;10.384;2023-05-07T07:13:39;8.93;;;7.07;;
18933;SDS011;9599;53.706;10.384;2023-05-07T07:16:07;8.07;;;6.87;;
18933;SDS011;9599;53.706;10.384;2023-05-07T07:18:35;8.33;;;6.67;;
18933;SDS011;9599;53.706;10.384;2023-05-07T07:21:04;8.60;;;6.53;;
18933;SDS011;9599;53.706;10.384;2023-05-07T07:23:32;9.53;;;6.77;;
18933;SDS011;9599;53.706;10.384;2023-05-07T07:26:00;7.97;;;6.50;;
18933;SDS011;9599;53.706;10.384;2023-05-07T07:28:28;7.47;;;6.40;;
18933;SDS011;9599;53.706;10.384;2023-05-07T07:30:57;7.37;;;6.20;;
18933;SDS011;9599;53.706;10.384;2023-05-07T07:33:26;8.13;;;6.43;;
18933;SDS011;9599;53.706;10.384;2023-05-07T07:35:55;8.13;;;6.70;;
18933;SDS011;9599;53.706;10.384;2023-05-07T07:38:24;7.80;;;6.00;;
18933;SDS011;9599;53.706;10.384;2023-05-07T07:40:52;7.50;;;5.80;;
18933;SDS011;9599;53.706;10.384;2023-05-07T07:43:22;7.23;;;6.03;;
18933;SDS011;9599;53.706;10.384;2023-05-07T07:45:50;7.40;;;5.60;;
18933;SDS011;9599;53.706;10.384;2023-05-07T07:48:20;7.17;;;5.77;;
18933;SDS011;9599;53.706;10.384;2023-05-07T07:50:48;6.57;;;5.30;;
18933;SDS011;9599;53.706;10.384;2023-05-07T07:53:18;6.43;;;5.50;;
18933;SDS011;9599;53.706;10.384;2023-05-07T07:55:46;7.20;;;5.97;;
18933;SDS011;9599;53.706;10.384;2023-05-07T07:58:17;7.43;;;5.50;;
18933;SDS011;9599;53.706;10.384;2023-05-07T08:00:45;7.13;;;5.77;;
18933;SDS011;9599;53.706;10.384;2023-05-07T08:03:14;6.37;;;5.60;;
18933;SDS011;9599;53.706;10.384;2023-05-07T08:05:48;6.87;;;5.90;;
18933;SDS011;9599;53.706;10.384;2023-05-07T08:08:17;6.77;;;5.60;;
18933;SDS011;9599;53.706;10.384;2023-05-07T08:10:46;7.43;;;6.10;;
18933;SDS011;9599;53.706;10.384;2023-05-07T08:13:23;7.57;;;6.17;;
18933;SDS011;9599;53.706;10.384;2023-05-07T08:15:51;6.80;;;5.93;;
18933;SDS011;9599;53.706;10.384;2023-05-07T08:18:20;7.17;;;6.20;;
18933;SDS011;9599;53.706;10.384;2023-05-07T08:20:52;7.57;;;6.27;;
18933;SDS011;9599;53.706;10.384;2023-05-07T08:23:22;6.53;;;5.73;;
18933;SDS011;9599;53.706;10.384;2023-05-07T08:25:50;7.97;;;6.40;;
18933;SDS011;9599;53.706;10.384;2023-05-07T08:28:19;10.47;;;5.93;;
18933;SDS011;9599;53.706;10.384;2023-05-07T08:30:48;7.27;;;5.60;;
18933;SDS011;9599;53.706;10.384;2023-05-07T08:33:16;6.73;;;5.80;;
18933;SDS011;9599;53.706;10.384;2023-05-07T08:35:44;6.30;;;5.70;;
18933;SDS011;9599;53.706;10.384;2023-05-07T08:38:15;6.60;;;5.90;;
18933;SDS011;9599;53.706;10.384;2023-05-07T08:40:43;6.93;;;5.63;;
18933;SDS011;9599;53.706;10.384;2023-05-07T08:43:17;7.00;;;5.57;;
18933;SDS011;9599;53.706;10.384;2023-05-07T08:45:47;6.80;;;5.50;;
18933;SDS011;9599;53.706;10.384;2023-05-07T08:48:24;6.13;;;5.47;;
18933;SDS011;9599;53.706;10.384;2023-05-07T08:51:03;7.77;;;6.17;;
18933;SDS011;9599;53.706;10.384;2023-05-07T08:53:33;6.00;;;5.40;;
18933;SDS011;9599;53.706;10.384;2023-05-07T08:56:03;5.70;;;5.10;;
18933;SDS011;9599;53.706;10.384;2023-05-07T08:58:31;6.80;;;5.13;;
18933;SDS011;9599;53.706;10.384;2023-05-07T09:01:00;6.30;;;5.40;;
18933;SDS011;9599;53.706;10.384;2023-05-07T09:03:30;6.67;;;5.93;;
18933;SDS011;9599;53.706;10.384;2023-05-07T09:05:59;5.67;;;4.90;;
18933;SDS011;9599;53.706;10.384;2023-05-07T09:08:28;5.43;;;4.87;;
18933;SDS011;9599;53.706;10.384;2023-05-07T09:11:01;5.33;;;4.77;;
18933;SDS011;9599;53.706;10.384;2023-05-07T09:13:29;5.93;;;5.30;;
18933;SDS011;9599;53.706;10.384;2023-05-07T09:16:06;5.90;;;4.87;;
18933;SDS011;9599;53.706;10.384;2023-05-07T09:18:41;5.87;;;5.13;;
18933;SDS011;9599;53.706;10.384;2023-05-07T09:21:11;7.43;;;5.37;;
18933;SDS011;9599;53.706;10.384;2023-05-07T09:23:43;5.77;;;5.13;;
18933;SDS011;9599;53.706;10.384;2023-05-07T09:26:13;5.60;;;5.00;;
18933;SDS011;9599;53.706;10.384;2023-05-07T09:28:43;5.87;;;4.60;;
18933;SDS011;9599;53.706;10.384;2023-05-07T09:31:13;5.63;;;4.90;;
18933;SDS011;9599;53.706;10.384;2023-05-07T09:33:42;5.03;;;4.30;;
18933;SDS011;9599;53.706;10.384;2023-05-07T09:36:12;5.20;;;4.70;;
18933;SDS011;9599;53.706;10.384;2023-05-07T09:38:41;5.07;;;4.30;;
18933;SDS011;9599;53.706;10.384;2023-05-07T09:41:11;4.60;;;4.10;;
18933;SDS011;9599;53.706;10.384;2023-05-07T09:43:54;4.90;;;4.40;;
18933;SDS011;9599;53.706;10.384;2023-05-07T09:46:30;5.30;;;4.47;;
18933;SDS011;9599;53.706;10.384;2023-05-07T09:49:06;5.07;;;4.37;;
18933;SDS011;9599;53.706;10.384;2023-05-07T09:51:41;5.20;;;4.00;;
18933;SDS011;9599;53.706;10.384;2023-05-07T09:54:15;5.13;;;4.63;;
18933;SDS011;9599;53.706;10.384;2023-05-07T09:56:47;4.67;;;4.10;;
18933;SDS011;9599;53.706;10.384;2023-05-07T09:59:19;5.13;;;4.30;;
18933;SDS011;9599;53.706;10.384;2023-05-07T10:01:48;4.87;;;4.20;;
18933;SDS011;9599;53.706;10.384;2023-05-07T10:04:18;4.83;;;4.37;;
18933;SDS011;9599;53.706;10.384;2023-05-07T10:06:49;6.20;;;4.30;;
18933;SDS011;9599;53.706;10.384;2023-05-07T10:09:17;5.57;;;4.30;;
18933;SDS011;9599;53.706;10.384;2023-05-07T10:11:46;4.70;;;4.20;;
18933;SDS011;9599;53.706;10.384;2023-05-07T10:14:16;5.47;;;4.10;;
18933;SDS011;9599;53.706;10.384;2023-05-07T10:16:47;5.10;;;4.10;;
18933;SDS011;9599;53.706;10.384;2023-05-07T10:19:16;5.60;;;4.07;;
18933;SDS011;9599;53.706;10.384;2023-05-07T10:21:51;5.90;;;4.20;;
18933;SDS011;9599;53.706;10.384;2023-05-07T10:24:25;5.00;;;4.20;;
18933;SDS011;9599;53.706;10.384;2023-05-07T10:26:55;6.00;;;4.50;;
18933;SDS011;9599;53.706;10.384;2023-05-07T10:29:32;6.03;;;4.37;;
18933;SDS011;9599;53.706;10.384;2023-05-07T10:32:14;4.50;;;4.00;;
18933;SDS011;9599;53.706;10.384;2023-05-07T10:35:09;5.73;;;3.90;;
18933;SDS011;9599;53.706;10.384;2023-05-07T10:37:39;4.93;;;4.43;;
18933;SDS011;9599;53.706;10.384;2023-05-07T10:40:08;5.00;;;4.30;;
18933;SDS011;9599;53.706;10.384;2023-05-07T10:42:38;73.03;;;9.47;;
18933;SDS011;9599;53.706;10.384;2023-05-07T10:45:22;19.47;;;4.97;;
18933;SDS011;9599;53.706;10.384;2023-05-07T10:48:05;6.10;;;4.23;;
18933;SDS011;9599;53.706;10.384;2023-05-07T10:53:46;4.30;;;3.90;;
18933;SDS011;9599;53.706;10.384;2023-05-07T10:56:26;4.30;;;3.90;;
18933;SDS011;9599;53.706;10.384;2023-05-07T11:11:43;5.07;;;3.70;;
18933;SDS011;9599;53.706;10.384;2023-05-07T11:14:43;22.45;;;5.55;;
18933;SDS011;9599;53.706;10.384;2023-05-07T11:17:19;4.17;;;3.43;;
18933;SDS011;9599;53.706;10.384;2023-05-07T11:19:55;4.00;;;3.60;;
18933;SDS011;9599;53.706;10.384;2023-05-07T11:22:51;3.90;;;3.50;;
18933;SDS011;9599;53.706;10.384;2023-05-07T11:25:35;3.80;;;3.30;;
18933;SDS011;9599;53.706;10.384;2023-05-07T11:28:11;4.83;;;3.70;;
18933;SDS011;9599;53.706;10.384;2023-05-07T11:30:45;3.83;;;3.53;;
18933;SDS011;9599;53.706;10.384;2023-05-07T11:33:16;4.40;;;3.60;;
18933;SDS011;9599;53.706;10.384;2023-05-07T11:35:47;3.90;;;3.33;;
18933;SDS011;9599;53.706;10.384;2023-05-07T11:38:20;3.87;;;3.00;;
18933;SDS011;9599;53.706;10.384;2023-05-07T11:40:49;3.40;;;3.10;;
18933;SDS011;9599;53.706;10.384;2023-05-07T11:43:18;3.23;;;2.93;;
18933;SDS011;9599;53.706;10.384;2023-05-07T11:45:46;3.30;;;3.00;;
18933;SDS011;9599;53.706;10.384;2023-05-07T11:48:15;3.87;;;3.03;;
18933;SDS011;9599;53.706;10.384;2023-05-07T11:50:50;2.73;;;2.53;;
18933;SDS011;9599;53.706;10.384;2023-05-07T11:53:20;3.23;;;2.93;;
18933;SDS011;9599;53.706;10.384;2023-05-07T11:55:51;3.13;;;2.83;;
18933;SDS011;9599;53.706;10.384;2023-05-07T11:58:20;3.03;;;2.67;;
18933;SDS011;9599;53.706;10.384;2023-05-07T12:00:50;3.70;;;2.60;;
18933;SDS011;9599;53.706;10.384;2023-05-07T12:03:18;3.37;;;2.40;;
18933;SDS011;9599;53.706;10.384;2023-05-07T12:05:46;2.87;;;2.67;;
18933;SDS011;9599;53.706;10.384;2023-05-07T12:08:15;2.70;;;2.50;;
18933;SDS011;9599;53.706;10.384;2023-05-07T12:10:45;2.70;;;2.30;;
18933;SDS011;9599;53.706;10.384;2023-05-07T12:13:15;2.50;;;2.30;;
18933;SDS011;9599;53.706;10.384;2023-05-07T12:15:43;2.90;;;2.40;;
18933;SDS011;9599;53.706;10.384;2023-05-07T12:18:11;2.77;;;2.37;;
18933;SDS011;9599;53.706;10.384;2023-05-07T12:20:40;2.50;;;2.30;;
18933;SDS011;9599;53.706;10.384;2023-05-07T12:23:09;2.50;;;2.27;;
18933;SDS011;9599;53.706;10.384;2023-05-07T12:25:38;2.60;;;2.40;;
18933;SDS011;9599;53.706;10.384;2023-05-07T12:28:12;3.00;;;2.70;;
18933;SDS011;9599;53.706;10.384;2023-05-07T12:30:40;2.63;;;2.43;;
18933;SDS011;9599;53.706;10.384;2023-05-07T12:33:10;2.90;;;2.47;;
18933;SDS011;9599;53.706;10.384;2023-05-07T12:35:39;3.10;;;2.27;;
18933;SDS011;9599;53.706;10.384;2023-05-07T12:38:09;3.53;;;2.30;;
18933;SDS011;9599;53.706;10.384;2023-05-07T12:40:38;2.80;;;2.60;;
18933;SDS011;9599;53.706;10.384;2023-05-07T12:43:07;2.90;;;2.60;;
18933;SDS011;9599;53.706;10.384;2023-05-07T12:45:39;2.57;;;2.37;;
18933;SDS011;9599;53.706;10.384;2023-05-07T12:48:09;3.47;;;2.90;;
18933;SDS011;9599;53.706;10.384;2023-05-07T12:50:37;2.60;;;2.40;;
18933;SDS011;9599;53.706;10.384;2023-05-07T12:53:06;2.70;;;2.30;;
18933;SDS011;9599;53.706;10.384;2023-05-07T12:55:42;3.63;;;2.33;;
18933;SDS011;9599;53.706;10.384;2023-05-07T12:58:16;2.63;;;2.20;;
18933;SDS011;9599;53.706;10.384;2023-05-07T13:00:47;2.60;;;2.40;;
18933;SDS011;9599;53.706;10.384;2023-05-07T13:03:20;5.17;;;2.80;;
18933;SDS011;9599;53.706;10.384;2023-05-07T13:05:50;3.28;;;2.40;;
18933;SDS011;9599;53.706;10.384;2023-05-07T13:08:25;2.53;;;2.33;;
18933;SDS011;9599;53.706;10.384;2023-05-07T13:10:58;3.07;;;2.60;;
18933;SDS011;9599;53.706;10.384;2023-05-07T13:13:29;3.50;;;2.20;;
18933;SDS011;9599;53.706;10.384;2023-05-07T13:15:59;3.83;;;2.20;;
18933;SDS011;9599;53.706;10.384;2023-05-07T13:18:29;3.70;;;2.20;;
18933;SDS011;9599;53.706;10.384;2023-05-07T13:20:58;2.87;;;2.23;;
18933;SDS011;9599;53.706;10.384;2023-05-07T13:23:26;3.73;;;2.47;;
18933;SDS011;9599;53.706;10.384;2023-05-07T13:25:55;2.70;;;2.40;;
18933;SDS011;9599;53.706;10.384;2023-05-07T13:28:23;2.63;;;2.27;;
18933;SDS011;9599;53.706;10.384;2023-05-07T13:30:52;2.57;;;2.37;;
18933;SDS011;9599;53.706;10.384;2023-05-07T13:33:22;2.73;;;2.53;;
18933;SDS011;9599;53.706;10.384;2023-05-07T13:35:50;2.57;;;2.37;;
18933;SDS011;9599;53.706;10.384;2023-05-07T13:38:18;2.77;;;2.43;;
18933;SDS011;9599;53.706;10.384;2023-05-07T13:40:48;2.80;;;2.60;;
18933;SDS011;9599;53.706;10.384;2023-05-07T13:43:16;2.63;;;2.43;;
18933;SDS011;9599;53.706;10.384;2023-05-07T13:45:45;3.10;;;2.70;;
18933;SDS011;9599;53.706;10.384;2023-05-07T13:48:13;2.73;;;2.50;;
18933;SDS011;9599;53.706;10.384;2023-05-07T13:50:42;2.53;;;2.30;;
18933;SDS011;9599;53.706;10.384;2023-05-07T13:53:10;3.73;;;2.53;;
18933;SDS011;9599;53.706;10.384;2023-05-07T13:55:38;3.20;;;3.00;;
18933;SDS011;9599;53.706;10.384;2023-05-07T13:58:07;2.57;;;2.33;;
18933;SDS011;9599;53.706;10.384;2023-05-07T14:00:35;108.03;;;9.23;;
18933;SDS011;9599;53.706;10.384;2023-05-07T14:03:03;3.03;;;2.73;;
18933;SDS011;9599;53.706;10.384;2023-05-07T14:05:32;4.10;;;2.50;;
18933;SDS011;9599;53.706;10.384;2023-05-07T14:08:02;86.17;;;8.83;;
18933;SDS011;9599;53.706;10.384;2023-05-07T14:10:31;5.37;;;2.83;;
18933;SDS011;9599;53.706;10.384;2023-05-07T14:13:00;2.90;;;2.70;;
18933;SDS011;9599;53.706;10.384;2023-05-07T14:15:29;2.87;;;2.60;;
18933;SDS011;9599;53.706;10.384;2023-05-07T14:17:58;4.20;;;2.70;;
18933;SDS011;9599;53.706;10.384;2023-05-07T14:20:28;2.70;;;2.50;;
18933;SDS011;9599;53.706;10.384;2023-05-07T14:22:57;2.33;;;2.13;;
18933;SDS011;9599;53.706;10.384;2023-05-07T14:25:26;2.63;;;2.40;;
18933;SDS011;9599;53.706;10.384;2023-05-07T14:27:54;3.57;;;2.50;;
18933;SDS011;9599;53.706;10.384;2023-05-07T14:30:22;3.93;;;2.53;;
18933;SDS011;9599;53.706;10.384;2023-05-07T14:32:51;2.67;;;2.47;;
18933;SDS011;9599;53.706;10.384;2023-05-07T14:35:19;2.43;;;2.23;;
18933;SDS011;9599;53.706;10.384;2023-05-07T14:37:47;2.43;;;2.20;;
18933;SDS011;9599;53.706;10.384;2023-05-07T14:40:15;2.33;;;2.20;;
18933;SDS011;9599;53.706;10.384;2023-05-07T14:42:44;3.33;;;2.37;;
18933;SDS011;9599;53.706;10.384;2023-05-07T14:45:12;2.90;;;2.60;;
18933;SDS011;9599;53.706;10.384;2023-05-07T14:47:40;2.63;;;2.43;;
18933;SDS011;9599;53.706;10.384;2023-05-07T14:50:08;2.87;;;2.40;;
18933;SDS011;9599;53.706;10.384;2023-05-07T14:52:37;2.60;;;2.40;;
18933;SDS011;9599;53.706;10.384;2023-05-07T14:55:05;2.50;;;2.30;;
18933;SDS011;9599;53.706;10.384;2023-05-07T14:57:33;2.33;;;2.20;;
18933;SDS011;9599;53.706;10.384;2023-05-07T15:00:04;3.07;;;2.60;;
18933;SDS011;9599;53.706;10.384;2023-05-07T15:02:34;2.60;;;2.40;;
18933;SDS011;9599;53.706;10.384;2023-05-07T15:05:02;2.60;;;2.40;;
18933;SDS011;9599;53.706;10.384;2023-05-07T15:07:32;2.93;;;2.47;;
18933;SDS011;9599;53.706;10.384;2023-05-07T15:10:00;3.47;;;2.20;;
18933;SDS011;9599;53.706;10.384;2023-05-07T15:12:28;2.40;;;2.20;;